Time;durP1;ratioP1;P1;durP2;ratioP2;P2;SDS_P1;SDS_P2;PMS_P1;PMS_P2;Temp;Humidity;BMP_temperature;BMP_pressure;BME280_temperature;BME280_humidity;BME280_pressure;Samples;Min_cycle;Max_cycle;Signal;HPM_P1;HPM_P2
2021/07/16 00:02:30;;;;;;;3.77;1.67;;;18.50;99.90;;;;;;6055515;29;20212;-71
2021/07/16 00:05:32;;;;;;;3.43;1.50;;;18.40;99.90;;;;;;6055412;29;20277;-71
2021/07/16 00:08:34;;;;;;;1.90;1.33;;;18.40;99.90;;;;;;6055849;29;20197;-71
2021/07/16 00:11:37;;;;;;;1.50;1.30;;;18.40;99.90;;;;;;6055230;29;20671;-71
2021/07/16 00:14:39;;;;;;;1.00;1.00;;;18.40;99.90;;;;;;6054216;29;20724;-71
2021/07/16 00:17:42;;;;;;;2.00;1.70;;;18.40;99.90;;;;;;6055445;29;20700;-71
2021/07/16 00:20:44;;;;;;;3.90;2.83;;;18.40;99.90;;;;;;6055067;29;20213;-71
2021/07/16 00:23:47;;;;;;;2.87;2.13;;;18.40;99.90;;;;;;6055450;29;20197;-71
2021/07/16 00:26:49;;;;;;;2.17;1.80;;;18.40;99.90;;;;;;6054897;29;20198;-71
2021/07/16 00:29:51;;;;;;;2.43;1.60;;;18.40;99.90;;;;;;6055268;29;20522;-71
2021/07/16 00:32:54;;;;;;;1.60;1.50;;;18.40;99.90;;;;;;6054863;29;20552;-71
2021/07/16 00:35:56;;;;;;;1.87;1.67;;;18.40;99.90;;;;;;6053535;29;20368;-71
2021/07/16 00:38:58;;;;;;;3.03;1.53;;;18.40;99.90;;;;;;6055428;29;20193;-71
2021/07/16 00:42:02;;;;;;;1.50;1.30;;;18.30;99.90;;;;;;6054794;29;20192;-71
2021/07/16 00:45:13;;;;;;;1.57;1.47;;;18.30;99.90;;;;;;6055134;29;20204;-71
2021/07/16 00:48:15;;;;;;;1.20;1.10;;;18.40;99.90;;;;;;6054904;29;20303;-71
2021/07/16 00:51:17;;;;;;;1.70;1.60;;;18.30;99.90;;;;;;6055116;29;20193;-71
2021/07/16 00:54:20;;;;;;;4.17;1.60;;;18.30;99.90;;;;;;6054844;29;20220;-71
2021/07/16 00:57:23;;;;;;;1.70;1.60;;;18.20;99.90;;;;;;6054967;29;20198;-71
2021/07/16 01:00:26;;;;;;;2.33;1.33;;;18.20;99.90;;;;;;6053571;29;20287;-71
2021/07/16 01:03:28;;;;;;;1.60;1.50;;;18.20;99.90;;;;;;6052974;29;20205;-71
2021/07/16 01:06:30;;;;;;;4.73;1.60;;;18.10;99.90;;;;;;6054809;29;20198;-71
2021/07/16 01:09:33;;;;;;;1.27;1.20;;;18.10;99.90;;;;;;6054572;29;20569;-71
2021/07/16 01:12:40;;;;;;;2.77;1.90;;;18.10;99.90;;;;;;6052781;29;20209;-71
2021/07/16 01:15:42;;;;;;;2.30;1.40;;;18.10;99.90;;;;;;6053292;29;20205;-71
2021/07/16 01:18:45;;;;;;;1.53;1.27;;;18.00;99.90;;;;;;6054165;29;20276;-71
2021/07/16 01:21:50;;;;;;;1.53;1.43;;;18.00;99.90;;;;;;6054353;29;20181;-71
2021/07/16 01:24:53;;;;;;;1.60;1.50;;;17.90;99.90;;;;;;6053988;29;20321;-71
2021/07/16 01:27:58;;;;;;;1.93;1.57;;;17.90;99.90;;;;;;6054555;29;20194;-71
2021/07/16 01:31:00;;;;;;;2.23;1.60;;;17.90;99.90;;;;;;6054288;29;20178;-71
2021/07/16 01:34:03;;;;;;;1.50;1.40;;;17.80;99.90;;;;;;6052751;29;20221;-71
2021/07/16 01:37:06;;;;;;;2.63;1.40;;;17.70;99.90;;;;;;6054219;29;20237;-71
2021/07/16 01:40:20;;;;;;;2.60;1.30;;;17.60;99.90;;;;;;6052779;29;20562;-71
2021/07/16 01:43:23;;;;;;;2.53;1.43;;;17.60;99.90;;;;;;6053147;29;20689;-71
2021/07/16 01:46:26;;;;;;;2.30;1.40;;;17.50;99.90;;;;;;6052940;29;20206;-71
2021/07/16 01:49:28;;;;;;;1.67;1.33;;;17.50;99.90;;;;;;6052518;29;20201;-71
2021/07/16 01:52:30;;;;;;;1.50;1.40;;;17.40;99.90;;;;;;6054919;29;20204;-71
2021/07/16 01:55:34;;;;;;;2.50;1.70;;;17.40;99.90;;;;;;6052467;29;20233;-70
2021/07/16 01:58:36;;;;;;;1.60;1.50;;;17.40;99.90;;;;;;6052920;29;20738;-71
2021/07/16 02:01:39;;;;;;;2.40;1.60;;;17.40;99.90;;;;;;6058324;29;20280;-71
2021/07/16 02:04:42;;;;;;;1.63;1.40;;;17.30;99.90;;;;;;6058130;29;20666;-71
2021/07/16 02:07:47;;;;;;;2.27;1.27;;;17.30;99.90;;;;;;6058594;29;20275;-71
2021/07/16 02:10:52;;;;;;;1.97;1.77;;;17.30;99.90;;;;;;6041206;29;20248;-71
2021/07/16 02:13:55;;;;;;;1.83;1.67;;;17.30;99.90;;;;;;6056974;29;20228;-70
2021/07/16 02:17:00;;;;;;;1.57;1.47;;;17.30;99.90;;;;;;6056529;29;20226;-70
2021/07/16 02:20:02;;;;;;;2.23;1.50;;;17.20;99.90;;;;;;6057030;29;20341;-71
2021/07/16 02:23:13;;;;;;;4.20;1.70;;;17.20;99.90;;;;;;6058147;29;20204;-71
2021/07/16 02:26:16;;;;;;;1.73;1.63;;;17.20;99.90;;;;;;6056576;29;20185;-71
2021/07/16 02:29:18;;;;;;;1.50;1.40;;;17.10;99.90;;;;;;6057794;29;20654;-71
2021/07/16 02:32:21;;;;;;;2.27;1.63;;;17.10;99.90;;;;;;6056285;29;20277;-71
2021/07/16 02:35:23;;;;;;;1.60;1.50;;;17.10;99.90;;;;;;6056428;29;20241;-71
2021/07/16 02:38:26;;;;;;;2.13;1.47;;;17.00;99.90;;;;;;6056609;29;20197;-71
2021/07/16 02:41:28;;;;;;;2.23;1.57;;;17.00;99.90;;;;;;6055828;29;20670;-70
2021/07/16 02:44:30;;;;;;;2.63;1.77;;;17.00;99.90;;;;;;6057713;29;20204;-71
2021/07/16 02:47:33;;;;;;;2.60;1.60;;;17.00;99.90;;;;;;6057720;29;20201;-71
2021/07/16 02:50:39;;;;;;;3.27;1.60;;;17.00;99.90;;;;;;6056492;29;20204;-71
2021/07/16 02:53:41;;;;;;;1.97;1.60;;;17.00;99.90;;;;;;6057489;29;20216;-71
2021/07/16 02:56:43;;;;;;;2.37;1.70;;;17.00;99.90;;;;;;6056150;29;20208;-71
2021/07/16 02:59:45;;;;;;;2.73;1.57;;;16.90;99.90;;;;;;6057358;29;20197;-71
2021/07/16 03:02:49;;;;;;;2.40;1.33;;;16.90;99.90;;;;;;6055330;29;20221;-71
2021/07/16 03:05:51;;;;;;;1.70;1.27;;;16.90;99.90;;;;;;6056007;29;20194;-71
2021/07/16 03:08:53;;;;;;;2.13;1.23;;;16.90;99.90;;;;;;6055698;29;20990;-70
2021/07/16 03:11:55;;;;;;;1.33;1.20;;;16.90;99.90;;;;;;6055776;29;20209;-71
2021/07/16 03:14:58;;;;;;;1.60;1.23;;;16.80;99.90;;;;;;6055634;29;20221;-70
2021/07/16 03:18:01;;;;;;;1.93;1.40;;;16.80;99.90;;;;;;6055372;29;20197;-71
2021/07/16 03:21:03;;;;;;;1.40;1.30;;;16.70;99.90;;;;;;6055768;29;20658;-71
2021/07/16 03:24:06;;;;;;;1.53;1.27;;;16.70;99.90;;;;;;6056301;29;20197;-71
2021/07/16 03:27:08;;;;;;;1.30;1.20;;;16.60;99.90;;;;;;6055620;29;20217;-71
2021/07/16 03:30:14;;;;;;;1.30;1.20;;;16.60;99.90;;;;;;6055556;29;20288;-70
2021/07/16 03:33:16;;;;;;;1.37;1.27;;;16.60;99.90;;;;;;6056351;29;20224;-71
2021/07/16 03:36:18;;;;;;;2.10;1.50;;;16.60;99.90;;;;;;6056047;29;20237;-71
2021/07/16 03:39:21;;;;;;;1.60;1.40;;;16.60;99.90;;;;;;6054429;29;20193;-71
2021/07/16 03:42:23;;;;;;;3.00;1.30;;;16.50;99.90;;;;;;6056214;29;20194;-71
2021/07/16 03:45:26;;;;;;;1.50;1.40;;;16.50;99.90;;;;;;6055725;29;20665;-70
2021/07/16 03:48:29;;;;;;;1.50;1.40;;;16.50;99.90;;;;;;6055988;29;20197;-71
2021/07/16 03:51:32;;;;;;;2.03;1.73;;;16.60;99.90;;;;;;6054609;29;20674;-71
2021/07/16 03:54:36;;;;;;;1.40;1.30;;;16.60;99.90;;;;;;6055325;29;20245;-71
2021/07/16 03:57:44;;;;;;;1.63;1.37;;;16.60;99.90;;;;;;6055770;29;20203;-70
2021/07/16 04:00:46;;;;;;;3.00;1.53;;;16.70;99.90;;;;;;6054325;29;20190;-71
2021/07/16 04:03:48;;;;;;;1.73;1.47;;;16.80;99.90;;;;;;6032505;29;20682;-71
2021/07/16 04:06:53;;;;;;;1.47;1.37;;;16.80;99.90;;;;;;6032609;29;20238;-71
2021/07/16 04:09:56;;;;;;;1.90;1.37;;;16.90;99.90;;;;;;6030773;29;20220;-70
2021/07/16 04:13:02;;;;;;;3.30;1.33;;;17.00;99.90;;;;;;6032386;29;20280;-71
2021/07/16 04:16:05;;;;;;;2.77;1.50;;;17.10;99.90;;;;;;6031999;29;20544;-70
2021/07/16 04:19:07;;;;;;;1.47;1.10;;;17.20;99.90;;;;;;6031360;29;20278;-71
2021/07/16 04:22:10;;;;;;;1.33;1.23;;;17.30;99.90;;;;;;6030475;29;20686;-71
2021/07/16 04:25:18;;;;;;;1.30;1.20;;;17.40;99.90;;;;;;6030388;29;20206;-70
2021/07/16 04:28:20;;;;;;;1.20;1.10;;;17.50;99.90;;;;;;6032222;29;20185;-71
2021/07/16 04:31:23;;;;;;;2.40;1.30;;;17.60;99.90;;;;;;6035281;29;20212;-71
2021/07/16 04:34:28;;;;;;;1.40;1.30;;;17.70;99.90;;;;;;6053520;29;20237;-71
2021/07/16 04:37:30;;;;;;;2.90;1.30;;;17.70;99.90;;;;;;6053056;29;20241;-70
2021/07/16 04:40:34;;;;;;;1.70;1.37;;;17.80;99.90;;;;;;6055204;29;20193;-71
2021/07/16 04:43:36;;;;;;;1.43;1.33;;;17.90;99.90;;;;;;6054743;29;20717;-71
2021/07/16 04:46:39;;;;;;;2.03;1.27;;;18.10;99.90;;;;;;6054781;29;20200;-71
2021/07/16 04:49:41;;;;;;;1.33;1.10;;;18.30;99.90;;;;;;6055122;29;20203;-71
2021/07/16 04:52:47;;;;;;;1.30;1.10;;;18.50;99.90;;;;;;6054171;29;20538;-71
2021/07/16 04:55:51;;;;;;;1.20;1.10;;;18.70;99.90;;;;;;6038854;29;20305;-71
2021/07/16 04:58:53;;;;;;;1.97;1.30;;;18.90;99.90;;;;;;6054760;29;20575;-71
2021/07/16 05:01:55;;;;;;;2.07;1.00;;;19.00;99.90;;;;;;6052619;29;20372;-71
2021/07/16 05:04:59;;;;;;;3.67;1.10;;;19.10;99.90;;;;;;6053179;29;20213;-71
2021/07/16 05:08:01;;;;;;;2.17;1.33;;;19.20;99.90;;;;;;6052997;29;20623;-71
2021/07/16 05:11:03;;;;;;;2.03;1.00;;;19.20;99.90;;;;;;6053137;29;20276;-71
2021/07/16 05:14:05;;;;;;;2.20;1.30;;;19.30;99.90;;;;;;6054221;29;20345;-71
2021/07/16 05:17:08;;;;;;;1.13;1.03;;;19.20;99.90;;;;;;6054146;29;20198;-71
2021/07/16 05:20:11;;;;;;;1.20;1.10;;;19.30;99.90;;;;;;6054259;29;20197;-71
2021/07/16 05:23:13;;;;;;;1.13;1.10;;;19.30;99.90;;;;;;6053744;29;20678;-71
2021/07/16 05:26:15;;;;;;;1.10;1.10;;;19.20;99.90;;;;;;6052830;29;20216;-70
2021/07/16 05:29:17;;;;;;;1.17;1.03;;;19.20;99.90;;;;;;6053583;29;20203;-71
2021/07/16 05:32:20;;;;;;;1.53;1.23;;;19.20;99.90;;;;;;6053923;29;20230;-71
2021/07/16 05:35:22;;;;;;;1.93;1.00;;;19.20;99.90;;;;;;6056442;29;20236;-71
2021/07/16 05:38:25;;;;;;;2.57;1.20;;;19.30;99.90;;;;;;6058723;29;20245;-71
2021/07/16 05:41:27;;;;;;;1.57;1.07;;;19.20;99.90;;;;;;6058621;29;20204;-71
2021/07/16 05:44:31;;;;;;;1.63;1.20;;;19.30;99.90;;;;;;6058352;29;20253;-71
2021/07/16 05:47:34;;;;;;;1.93;1.23;;;19.30;99.90;;;;;;6058741;29;20276;-71
2021/07/16 05:50:42;;;;;;;3.10;1.20;;;19.30;99.90;;;;;;6058557;29;20309;-71
2021/07/16 05:53:44;;;;;;;2.50;1.20;;;19.30;99.90;;;;;;6058053;29;20220;-71
2021/07/16 05:56:46;;;;;;;1.53;1.37;;;19.40;99.90;;;;;;6058719;29;20222;-71
2021/07/16 05:59:49;;;;;;;1.60;1.30;;;19.40;99.90;;;;;;6056885;29;20196;-71
2021/07/16 06:02:51;;;;;;;1.70;1.40;;;19.40;99.90;;;;;;6058142;29;20685;-71
2021/07/16 06:05:53;;;;;;;1.43;1.17;;;19.50;99.90;;;;;;6056927;29;20201;-71
2021/07/16 06:08:55;;;;;;;2.80;1.30;;;19.60;99.90;;;;;;6058013;29;20665;-71
2021/07/16 06:11:58;;;;;;;1.63;1.40;;;19.60;99.90;;;;;;6056965;29;20193;-71
2021/07/16 06:15:01;;;;;;;3.43;1.17;;;19.70;99.90;;;;;;6057784;29;20342;-71
2021/07/16 06:18:04;;;;;;;1.50;1.20;;;19.70;99.90;;;;;;6056956;29;20193;-71
2021/07/16 06:21:06;;;;;;;1.93;1.60;;;19.80;99.90;;;;;;6057691;29;20571;-71
2021/07/16 06:24:09;;;;;;;2.13;1.57;;;19.80;99.90;;;;;;6058209;29;20662;-71
2021/07/16 06:27:11;;;;;;;1.40;1.30;;;19.90;99.90;;;;;;6056589;29;20205;-71
2021/07/16 06:30:15;;;;;;;1.20;1.10;;;20.00;99.90;;;;;;6057401;29;20197;-71
2021/07/16 06:33:17;;;;;;;1.67;1.50;;;20.10;99.90;;;;;;6056515;29;20284;-70
2021/07/16 06:36:20;;;;;;;2.27;1.30;;;20.20;99.90;;;;;;6056777;29;20717;-71
2021/07/16 06:39:22;;;;;;;2.07;1.40;;;20.40;99.90;;;;;;6057674;29;20190;-71
2021/07/16 06:42:25;;;;;;;2.90;1.40;;;20.50;99.90;;;;;;6057257;29;20680;-71
2021/07/16 06:45:27;;;;;;;4.10;1.83;;;20.60;99.90;;;;;;6057042;29;20205;-71
2021/07/16 06:48:29;;;;;;;8.13;2.07;;;20.90;99.90;;;;;;6057380;29;20189;-71
2021/07/16 06:51:33;;;;;;;2.57;1.43;;;21.10;99.90;;;;;;6055414;29;20201;-71
2021/07/16 06:54:35;;;;;;;1.60;1.50;;;21.40;99.90;;;;;;6056224;29;20656;-71
2021/07/16 06:57:37;;;;;;;2.37;1.57;;;21.60;99.90;;;;;;6057177;29;20201;-71
2021/07/16 07:00:41;;;;;;;3.13;1.30;;;21.80;99.90;;;;;;6056885;29;20556;-71
2021/07/16 07:03:44;;;;;;;3.50;1.37;;;22.00;99.90;;;;;;6055501;29;20681;-71
2021/07/16 07:06:46;;;;;;;1.97;1.60;;;22.30;99.90;;;;;;6056626;29;20886;-71
2021/07/16 07:09:48;;;;;;;5.00;1.60;;;22.50;99.90;;;;;;6057729;29;20321;-71
2021/07/16 07:12:51;;;;;;;3.00;1.33;;;22.70;99.80;;;;;;6055156;29;20666;-71
2021/07/16 07:15:53;;;;;;;2.03;1.53;;;23.00;99.40;;;;;;6055591;29;20288;-71
2021/07/16 07:18:55;;;;;;;2.23;1.67;;;23.30;98.70;;;;;;6056714;29;20717;-71
2021/07/16 07:21:58;;;;;;;1.90;1.60;;;23.60;98.10;;;;;;6056149;29;20872;-71
2021/07/16 07:25:00;;;;;;;1.83;1.30;;;23.90;97.20;;;;;;6056617;29;20726;-71
2021/07/16 07:28:03;;;;;;;1.50;1.40;;;24.20;96.40;;;;;;6054950;29;20228;-71
2021/07/16 07:31:05;;;;;;;1.57;1.47;;;24.50;95.40;;;;;;6056378;29;20541;-72
2021/07/16 07:34:10;;;;;;;1.60;1.20;;;24.70;94.50;;;;;;6055965;29;20321;-71
2021/07/16 07:37:13;;;;;;;2.90;1.37;;;24.80;94.00;;;;;;6032532;29;20734;-71
2021/07/16 07:40:17;;;;;;;4.17;1.50;;;24.80;93.60;;;;;;6033576;29;20224;-72
2021/07/16 07:43:20;;;;;;;1.40;1.30;;;25.00;93.40;;;;;;6032430;29;20215;-71
2021/07/16 07:46:23;;;;;;;1.60;1.50;;;25.20;92.80;;;;;;6032873;29;20201;-71
2021/07/16 07:49:28;;;;;;;2.33;1.50;;;25.30;91.40;;;;;;6046923;29;20277;-71
2021/07/16 07:52:30;;;;;;;1.43;1.33;;;25.40;91.40;;;;;;6031072;29;20194;-71
2021/07/16 07:55:32;;;;;;;2.63;1.67;;;25.60;91.00;;;;;;6047086;29;20256;-71
2021/07/16 07:58:34;;;;;;;1.70;1.33;;;25.70;89.70;;;;;;6045769;29;20205;-71
2021/07/16 08:01:37;;;;;;;2.63;1.70;;;25.80;89.50;;;;;;6039135;29;20197;-72
2021/07/16 08:04:41;;;;;;;1.48;1.33;;;25.90;89.40;;;;;;6054131;29;20209;-71
2021/07/16 08:07:43;;;;;;;1.83;1.60;;;25.90;88.60;;;;;;6055704;29;20412;-71
2021/07/16 08:10:46;;;;;;;1.50;1.40;;;26.00;87.40;;;;;;6054284;29;20618;-68
2021/07/16 08:13:48;;;;;;;1.58;1.48;;;25.90;87.00;;;;;;6053810;29;20799;-67
2021/07/16 08:16:51;;;;;;;2.15;1.10;;;25.90;87.00;;;;;;6055119;29;20708;-68
2021/07/16 08:19:54;;;;;;;1.30;1.20;;;26.10;87.30;;;;;;6053784;29;20209;-68
2021/07/16 08:22:57;;;;;;;2.75;1.23;;;26.30;85.40;;;;;;6055171;29;20235;-68
2021/07/16 08:25:59;;;;;;;2.80;1.15;;;26.50;84.90;;;;;;6055347;29;20551;-68
2021/07/16 08:29:01;;;;;;;1.40;1.30;;;26.60;83.00;;;;;;6053575;29;20229;-68
2021/07/16 08:32:04;;;;;;;1.50;1.35;;;26.80;82.30;;;;;;6053423;29;20292;-69
2021/07/16 08:35:07;;;;;;;2.00;1.02;;;27.00;81.60;;;;;;6054354;29;20238;-68
2021/07/16 08:38:09;;;;;;;1.20;1.10;;;27.30;80.50;;;;;;6053987;29;20286;-68
2021/07/16 08:41:11;;;;;;;1.30;1.20;;;27.60;79.30;;;;;;6054971;29;20196;-68
2021/07/16 08:44:14;;;;;;;2.20;1.30;;;27.70;77.60;;;;;;6054168;29;20193;-68
2021/07/16 08:47:18;;;;;;;4.75;1.40;;;27.90;76.50;;;;;;6053601;29;20212;-68
2021/07/16 08:50:23;;;;;;;1.35;1.25;;;28.10;74.40;;;;;;6054411;29;20264;-68
2021/07/16 08:53:26;;;;;;;1.55;1.17;;;28.00;74.30;;;;;;6054530;29;20561;-69
2021/07/16 08:56:35;;;;;;;1.10;1.00;;;28.20;75.00;;;;;;6052945;29;20220;-70
2021/07/16 08:59:37;;;;;;;4.72;1.30;;;28.50;74.50;;;;;;6054356;29;20181;-71
2021/07/16 09:02:59;;;;;;;3.83;1.40;;;28.90;72.10;;;;;;6053049;29;20671;-71
2021/07/16 09:06:01;;;;;;;2.78;1.83;;;29.30;69.00;;;;;;6037492;29;20257;-71
2021/07/16 09:09:07;;;;;;;1.80;1.52;;;29.50;67.90;;;;;;6050986;29;20526;-74
2021/07/16 09:12:14;;;;;;;2.75;1.52;;;29.50;65.50;;;;;;6053530;29;20173;-74
2021/07/16 09:15:16;;;;;;;1.60;1.50;;;29.30;65.90;;;;;;6052877;29;20213;-74
2021/07/16 09:18:21;;;;;;;1.35;1.25;;;29.10;65.20;;;;;;6052856;29;20208;-74
2021/07/16 09:21:24;;;;;;;1.40;1.30;;;28.90;66.80;;;;;;6052476;29;20193;-74
2021/07/16 09:24:26;;;;;;;1.63;1.52;;;29.00;67.40;;;;;;6052645;29;20197;-73
2021/07/16 09:27:42;;;;;;;2.75;1.67;;;29.30;65.60;;;;;;6052164;29;20299;-74
2021/07/16 09:30:44;;;;;;;2.35;1.80;;;29.50;63.80;;;;;;6052808;29;20184;-75
2021/07/16 09:33:51;;;;;;;2.38;1.40;;;29.40;64.90;;;;;;6052224;29;20544;-75
2021/07/16 09:36:53;;;;;;;1.67;1.55;;;29.60;62.90;;;;;;6053775;29;20233;-74
2021/07/16 09:39:58;;;;;;;1.52;1.42;;;29.80;62.20;;;;;;6052361;29;20200;-74
2021/07/16 09:43:03;;;;;;;2.35;1.75;;;30.20;63.40;;;;;;6051953;29;20326;-74
2021/07/16 09:46:06;;;;;;;1.55;1.40;;;30.40;60.50;;;;;;6053940;29;20186;-75
2021/07/16 09:49:14;;;;;;;2.13;1.50;;;30.70;59.20;;;;;;6053707;29;20218;-75
2021/07/16 09:52:19;;;;;;;1.73;1.63;;;31.00;59.20;;;;;;6054353;29;20186;-74
2021/07/16 09:55:22;;;;;;;3.80;1.38;;;31.10;57.70;;;;;;6053678;29;20233;-74
2021/07/16 09:58:26;;;;;;;1.50;1.40;;;31.20;57.40;;;;;;6054012;29;20349;-74
2021/07/16 10:01:32;;;;;;;3.00;1.58;;;31.20;57.80;;;;;;6056592;29;20219;-82
2021/07/16 10:04:36;;;;;;;3.10;1.50;;;31.60;57.40;;;;;;6024955;29;20206;-82
2021/07/16 10:07:41;;;;;;;1.88;1.50;;;31.30;56.40;;;;;;6052839;29;20209;-83
2021/07/16 10:10:45;;;;;;;1.95;1.27;;;31.20;56.10;;;;;;6050633;29;20280;-82
2021/07/16 10:13:49;;;;;;;1.63;1.42;;;31.30;55.90;;;;;;6067461;29;20334;-83
2021/07/16 10:16:54;;;;;;;1.30;1.20;;;31.50;55.30;;;;;;6051656;29;20616;-84
2021/07/16 10:19:57;;;;;;;1.40;1.30;;;31.20;54.60;;;;;;6052446;29;20316;-81
2021/07/16 10:23:00;;;;;;;1.83;1.60;;;31.20;54.90;;;;;;6055150;29;20221;-84
2021/07/16 10:26:04;;;;;;;2.38;1.38;;;31.10;55.50;;;;;;6056300;29;20208;-84
2021/07/16 10:29:47;;;;;;;1.30;1.20;;;31.10;54.50;;;;;;6058108;29;20237;-84
2021/07/16 10:32:51;;;;;;;2.33;1.50;;;31.20;54.10;;;;;;6057234;29;20205;-83
2021/07/16 10:35:53;;;;;;;1.45;1.35;;;31.40;54.10;;;;;;6057876;29;20229;-84
2021/07/16 10:38:56;;;;;;;1.17;1.05;;;31.60;54.50;;;;;;6057262;29;20208;-83
2021/07/16 10:41:58;;;;;;;2.72;1.58;;;31.90;54.10;;;;;;6056177;29;20991;-83
2021/07/16 10:45:04;;;;;;;1.50;1.40;;;32.10;53.60;;;;;;6055935;29;20204;-82
2021/07/16 10:48:18;;;;;;;2.35;1.70;;;32.50;52.80;;;;;;6057083;29;20257;-84
2021/07/16 10:51:27;;;;;;;2.17;1.80;;;32.30;51.60;;;;;;6056300;29;20555;-84
2021/07/16 10:54:45;;;;;;;1.40;1.30;;;32.40;52.20;;;;;;6055577;29;20277;-85
2021/07/16 10:57:48;;;;;;;1.50;1.40;;;32.40;52.80;;;;;;6057925;29;20179;-82
2021/07/16 11:00:51;;;;;;;2.92;1.30;;;32.80;52.20;;;;;;6056670;29;20615;-86
2021/07/16 11:03:54;;;;;;;2.80;1.40;;;32.90;50.00;;;;;;6055542;29;20205;-84
2021/07/16 11:06:58;;;;;;;2.42;1.20;;;33.10;50.40;;;;;;6040220;29;20250;-85
2021/07/16 11:10:02;;;;;;;2.33;1.52;;;33.20;50.70;;;;;;6055933;29;20658;-83
2021/07/16 11:13:34;;;;;;;1.67;1.52;;;33.10;49.60;;;;;;6055667;29;20544;-84
2021/07/16 11:16:38;;;;;;;1.48;1.23;;;33.30;50.40;;;;;;6048014;29;20361;-83
2021/07/16 11:20:10;;;;;;;1.77;1.35;;;33.70;47.80;;;;;;6031836;29;20204;-84
2021/07/16 11:23:12;;;;;;;1.48;1.38;;;33.50;48.30;;;;;;6034257;29;20179;-85
2021/07/16 11:26:16;;;;;;;2.50;1.20;;;33.60;48.50;;;;;;6032352;29;20682;-85
2021/07/16 11:29:21;;;;;;;2.20;1.50;;;33.50;48.50;;;;;;6033714;29;20659;-82
2021/07/16 11:32:27;;;;;;;1.40;1.30;;;33.50;49.10;;;;;;6044239;29;20287;-84
2021/07/16 11:35:30;;;;;;;1.90;1.42;;;33.50;48.90;;;;;;6056336;29;20276;-84
2021/07/16 11:38:33;;;;;;;1.48;1.38;;;33.70;49.20;;;;;;6056820;29;20559;-87
2021/07/16 11:41:36;;;;;;;1.88;1.60;;;34.10;48.30;;;;;;6054882;29;20209;-85
2021/07/16 11:44:43;;;;;;;18.27;2.47;;;34.30;47.90;;;;;;6054772;29;20209;-83
2021/07/16 11:47:46;;;;;;;1.83;1.65;;;34.80;47.00;;;;;;6055533;29;20212;-86
2021/07/16 11:50:48;;;;;;;2.83;1.85;;;34.80;46.50;;;;;;6056132;29;20333;-86
2021/07/16 11:53:51;;;;;;;2.90;1.83;;;34.70;46.90;;;;;;6056211;29;20208;-85
2021/07/16 11:56:55;;;;;;;1.50;1.40;;;34.90;47.20;;;;;;6054851;29;20228;-86
2021/07/16 11:59:58;;;;;;;1.52;1.42;;;35.00;46.90;;;;;;6040008;29;20805;-79
2021/07/16 12:03:03;;;;;;;1.58;1.48;;;34.60;46.60;;;;;;6054362;29;20220;-85
2021/07/16 12:06:06;;;;;;;1.60;1.50;;;34.20;47.70;;;;;;6054962;29;20253;-85
2021/07/16 12:09:09;;;;;;;2.70;1.92;;;34.00;47.50;;;;;;6055761;29;20537;-85
2021/07/16 12:12:14;;;;;;;3.53;1.58;;;33.90;46.80;;;;;;6054535;29;20584;-84
2021/07/16 12:15:21;;;;;;;2.17;1.70;;;33.60;47.60;;;;;;6054934;29;20705;-85
2021/07/16 12:18:24;;;;;;;1.80;1.30;;;33.70;47.00;;;;;;6054291;29;20208;-85
2021/07/16 12:21:28;;;;;;;1.55;1.45;;;33.50;46.70;;;;;;6054448;29;20672;-85
2021/07/16 12:24:30;;;;;;;1.60;1.50;;;33.40;46.40;;;;;;6053769;29;20580;-85
2021/07/16 12:27:33;;;;;;;3.45;1.50;;;32.80;47.70;;;;;;6054378;29;20246;-85
2021/07/16 12:30:37;;;;;;;2.25;1.40;;;32.30;48.50;;;;;;6056098;29;20200;-86
2021/07/16 12:33:42;;;;;;;2.47;1.30;;;32.40;48.10;;;;;;6053910;29;20209;-86
2021/07/16 12:36:44;;;;;;;1.30;1.20;;;32.70;47.10;;;;;;6054505;29;20233;-86
2021/07/16 12:39:47;;;;;;;2.60;1.52;;;33.00;46.80;;;;;;6054121;29;20193;-83
2021/07/16 12:42:58;;;;;;;2.30;1.10;;;33.10;47.20;;;;;;6054652;29;20507;-85
2021/07/16 12:46:01;;;;;;;1.60;1.50;;;33.10;47.00;;;;;;6038603;29;20205;-84
2021/07/16 12:49:12;;;;;;;1.30;1.10;;;33.40;47.40;;;;;;6056267;29;20209;-86
2021/07/16 12:52:15;;;;;;;2.55;1.45;;;33.70;46.50;;;;;;6054048;29;20217;-86
2021/07/16 12:55:20;;;;;;;1.70;1.50;;;34.20;46.70;;;;;;6053921;29;20300;-86
2021/07/16 12:58:33;;;;;;;1.70;1.40;;;34.80;46.60;;;;;;6054211;29;20215;-86
2021/07/16 13:01:35;;;;;;;2.40;1.55;;;35.40;45.60;;;;;;6053636;29;20209;-85
2021/07/16 13:04:47;;;;;;;1.40;1.30;;;35.60;43.30;;;;;;6053821;29;20208;-84
2021/07/16 13:07:49;;;;;;;1.58;1.42;;;34.90;44.00;;;;;;6055081;29;20202;-86
2021/07/16 13:11:02;;;;;;;1.70;1.60;;;34.90;44.90;;;;;;6067585;29;20197;-85
2021/07/16 13:14:05;;;;;;;2.10;1.80;;;34.60;45.20;;;;;;6066225;29;20205;-85
2021/07/16 13:17:40;;;;;;;1.48;1.38;;;33.60;46.20;;;;;;5207345;29;10000679;-86
2021/07/16 13:20:44;;;;;;;5.60;1.52;;;33.40;47.00;;;;;;5989734;29;20218;-82
2021/07/16 13:23:47;;;;;;;1.80;1.48;;;33.80;46.70;;;;;;5134898;29;10000916;-85
2021/07/16 13:26:49;;;;;;;1.90;1.33;;;33.90;45.40;;;;;;6003410;29;20203;-85
2021/07/16 13:29:53;;;;;;;1.77;1.35;;;34.20;45.50;;;;;;5997802;29;20306;-87
2021/07/16 13:32:55;;;;;;;1.55;1.40;;;34.60;44.70;;;;;;6005959;29;20199;-84
2021/07/16 13:35:57;;;;;;;1.30;1.20;;;35.10;43.70;;;;;;6006426;29;20238;-85
2021/07/16 13:39:00;;;;;;;1.33;1.10;;;35.40;43.30;;;;;;5992052;29;20222;-85
2021/07/16 13:42:02;;;;;;;3.53;1.30;;;35.70;43.70;;;;;;5995236;29;20203;-83
2021/07/16 13:45:06;;;;;;;1.52;1.30;;;36.10;42.90;;;;;;5990575;29;20198;-82
2021/07/16 13:48:08;;;;;;;1.10;1.05;;;36.50;42.80;;;;;;6009641;29;20697;-81
2021/07/16 13:51:10;;;;;;;1.42;1.33;;;36.90;41.60;;;;;;5999262;29;20213;-85
2021/07/16 13:54:13;;;;;;;1.48;1.20;;;37.10;41.10;;;;;;5990883;29;20362;-88
2021/07/16 13:57:19;;;;;;;2.95;1.10;;;37.50;40.60;;;;;;6049370;29;20221;-85
2021/07/16 14:00:22;;;;;;;4.50;1.58;;;37.80;40.30;;;;;;6056427;29;20338;-88
2021/07/16 14:03:24;;;;;;;1.40;1.30;;;38.00;40.50;;;;;;6063869;29;20204;-86
2021/07/16 14:06:27;;;;;;;1.30;1.20;;;38.30;39.40;;;;;;6063421;29;20654;-87
2021/07/16 14:09:29;;;;;;;2.47;1.30;;;38.40;38.50;;;;;;6057834;29;20201;-85
2021/07/16 14:12:32;;;;;;;1.23;1.13;;;38.40;38.40;;;;;;6056450;29;20209;-80
2021/07/16 14:15:34;;;;;;;1.60;1.20;;;38.60;37.80;;;;;;6055673;29;20205;-80
2021/07/16 14:18:36;;;;;;;1.77;1.20;;;39.10;37.50;;;;;;6057739;29;20192;-80
2021/07/16 14:21:58;;;;;;;1.52;1.10;;;39.60;37.70;;;;;;6059001;29;20277;-86
2021/07/16 14:25:03;;;;;;;1.85;1.00;;;39.90;36.80;;;;;;6058364;29;20193;-88
2021/07/16 14:28:05;;;;;;;0.95;0.95;;;39.90;35.70;;;;;;6063475;29;20744;-84
2021/07/16 14:31:07;;;;;;;2.00;1.17;;;39.90;35.50;;;;;;6060808;29;20197;-84
2021/07/16 14:34:09;;;;;;;1.88;1.00;;;39.90;34.90;;;;;;6065301;29;20222;-84
2021/07/16 14:37:16;;;;;;;1.05;0.95;;;40.20;35.60;;;;;;6059435;29;20248;-84
2021/07/16 14:40:20;;;;;;;1.77;1.00;;;40.70;35.40;;;;;;6063687;29;20177;-85
2021/07/16 14:43:22;;;;;;;0.90;0.90;;;40.90;33.90;;;;;;6063924;29;20204;-85
2021/07/16 14:46:26;;;;;;;1.50;1.20;;;41.00;34.50;;;;;;6064074;29;20197;-85
2021/07/16 14:49:30;;;;;;;1.20;1.10;;;40.80;34.40;;;;;;6063658;29;20204;-84
2021/07/16 14:52:35;;;;;;;2.08;1.10;;;40.80;34.10;;;;;;6062160;29;20553;-85
2021/07/16 14:55:37;;;;;;;1.45;1.10;;;41.00;34.00;;;;;;6061767;29;20223;-84
2021/07/16 14:58:39;;;;;;;1.02;1.00;;;40.70;33.60;;;;;;6063096;29;20205;-82
2021/07/16 15:01:42;;;;;;;1.48;1.10;;;40.60;33.90;;;;;;6061880;29;20209;-84
2021/07/16 15:04:44;;;;;;;0.80;0.80;;;40.50;34.20;;;;;;6059086;29;20557;-84
2021/07/16 15:07:47;;;;;;;1.58;0.90;;;40.70;33.70;;;;;;6062779;29;20272;-84
2021/07/16 15:10:50;;;;;;;3.58;1.33;;;40.90;33.30;;;;;;6060787;29;20666;-84
2021/07/16 15:13:53;;;;;;;1.27;0.90;;;41.10;33.50;;;;;;6059106;29;20651;-84
2021/07/16 15:16:55;;;;;;;1.75;1.00;;;41.10;33.10;;;;;;6062261;29;20214;-85
2021/07/16 15:19:58;;;;;;;1.55;0.98;;;41.30;33.30;;;;;;6063480;29;20190;-85
2021/07/16 15:23:00;;;;;;;1.10;1.00;;;41.40;32.50;;;;;;6064346;29;20307;-81
2021/07/16 15:26:03;;;;;;;1.10;1.00;;;41.00;32.60;;;;;;6058854;29;20234;-87
2021/07/16 15:29:05;;;;;;;1.38;1.15;;;40.80;33.60;;;;;;6056177;29;20189;-84
2021/07/16 15:32:08;;;;;;;2.15;0.88;;;41.00;33.60;;;;;;6059416;29;20674;-84
2021/07/16 15:35:14;;;;;;;1.70;1.10;;;41.10;33.30;;;;;;6062437;29;20249;-84
2021/07/16 15:38:17;;;;;;;1.17;1.02;;;41.20;33.60;;;;;;6064134;29;20224;-84
2021/07/16 15:41:19;;;;;;;1.33;1.23;;;41.10;33.60;;;;;;6067370;29;20195;-84
2021/07/16 15:44:23;;;;;;;4.10;1.02;;;41.00;33.40;;;;;;6062283;29;20641;-84
2021/07/16 15:47:25;;;;;;;1.58;1.10;;;41.10;34.20;;;;;;6062922;29;20206;-84
2021/07/16 15:50:28;;;;;;;1.30;1.17;;;41.60;33.70;;;;;;6062345;29;20202;-82
2021/07/16 15:53:31;;;;;;;1.48;1.30;;;42.10;33.20;;;;;;6055050;29;20688;-81
2021/07/16 15:56:34;;;;;;;1.75;1.10;;;42.10;33.20;;;;;;6055257;29;20560;-81